createdAt,value
2023-03-26T00:01:52.831Z,99467.80
2023-03-26T00:04:21.872Z,99466.00
2023-03-26T00:06:50.487Z,99457.40
2023-03-26T00:09:18.889Z,99462.40
2023-03-26T00:11:46.929Z,99449.40
2023-03-26T00:14:17.605Z,99441.20
2023-03-26T00:16:47.717Z,99438.60
2023-03-26T00:19:16.747Z,99436.60
2023-03-26T00:21:44.602Z,99429.80
2023-03-26T00:24:15.356Z,99429.60
2023-03-26T00:26:44.681Z,99430.20
2023-03-26T00:29:13.854Z,99428.00
2023-03-26T00:31:46.553Z,99422.40
2023-03-26T00:34:18.483Z,99419.00
2023-03-26T00:36:47.447Z,99411.80
2023-03-26T00:39:15.367Z,99407.60
2023-03-26T00:41:43.764Z,99401.20
2023-03-26T00:44:11.703Z,99393.80
2023-03-26T00:46:39.574Z,99388.20
2023-03-26T00:49:10.811Z,99391.40
2023-03-26T00:51:39.393Z,99386.60
2023-03-26T00:54:08.474Z,99385.20
2023-03-26T00:56:36.221Z,99376.00
2023-03-26T00:59:04.370Z,99379.40
2023-03-26T01:01:32.523Z,99373.00
2023-03-26T01:04:30.576Z,99374.80
2023-03-26T01:07:06.847Z,99366.60
2023-03-26T01:09:42.788Z,99356.00
2023-03-26T01:12:18.354Z,99353.40
2023-03-26T01:14:50.208Z,99348.80
2023-03-26T01:17:19.410Z,99345.80
2023-03-26T01:20:15.188Z,99342.20
2023-03-26T01:22:49.475Z,99342.00
2023-03-26T01:25:17.310Z,99339.00
2023-03-26T01:27:50.254Z,99336.00
2023-03-26T01:30:43.367Z,99327.40
2023-03-26T01:33:26.434Z,99323.20
2023-03-26T01:36:16.842Z,99316.40
2023-03-26T01:38:46.914Z,99310.80
2023-03-26T01:41:21.660Z,99304.40
2023-03-26T01:44:02.804Z,99301.80
2023-03-26T01:46:36.339Z,99298.40
2023-03-26T01:49:05.724Z,99292.60
2023-03-26T01:51:35.643Z,99282.20
2023-03-26T01:54:05.832Z,99287.60
2023-03-26T01:56:50.311Z,99281.60
2023-03-26T01:59:53.110Z,99277.80
2023-03-26T02:02:37.275Z,99267.20
2023-03-26T02:05:28.576Z,99273.00
2023-03-26T02:08:09.594Z,99266.20
2023-03-26T02:10:49.425Z,99260.60
2023-03-26T02:13:17.286Z,99253.60
2023-03-26T02:15:56.818Z,99250.20
2023-03-26T02:18:25.209Z,99246.00
2023-03-26T02:20:53.190Z,99244.00
2023-03-26T02:23:21.522Z,99242.00
2023-03-26T02:25:49.329Z,99235.20
2023-03-26T02:28:17.160Z,99226.40
2023-03-26T02:30:45.927Z,99221.20
2023-03-26T02:33:15.477Z,99222.40
2023-03-26T02:35:45.938Z,99224.40
2023-03-26T02:38:14.722Z,99215.40
2023-03-26T02:40:42.843Z,99211.00
2023-03-26T02:43:10.954Z,99204.20
2023-03-26T02:45:39.352Z,99200.60
2023-03-26T02:48:26.385Z,99200.80
2023-03-26T02:51:00.173Z,99192.20
2023-03-26T02:53:51.568Z,99190.20
2023-03-26T02:56:37.701Z,99181.20
2023-03-26T02:59:28.685Z,99179.80
2023-03-26T03:02:14.732Z,99177.80
2023-03-26T03:04:44.194Z,99177.20
2023-03-26T03:07:15.050Z,99172.20
2023-03-26T03:09:43.141Z,99175.60
2023-03-26T03:12:29.601Z,99182.60
2023-03-26T03:14:57.462Z,99178.20
2023-03-26T03:17:25.307Z,99171.60
2023-03-26T03:19:53.078Z,99172.80
2023-03-26T03:22:21.050Z,99176.80
2023-03-26T03:24:51.968Z,99175.80
2023-03-26T03:27:21.618Z,99171.00
2023-03-26T03:29:58.943Z,99172.80
2023-03-26T03:32:47.348Z,99172.00
2023-03-26T03:35:18.210Z,99169.20
2023-03-26T03:37:48.782Z,99164.60
2023-03-26T03:40:16.840Z,99162.80
2023-03-26T03:42:46.638Z,99166.60
2023-03-26T03:45:15.501Z,99162.40
2023-03-26T03:47:53.160Z,99167.20
2023-03-26T03:50:26.975Z,99163.00
2023-03-26T03:53:08.779Z,99165.60
2023-03-26T03:55:38.330Z,99162.80
2023-03-26T03:58:09.237Z,99160.40
2023-03-26T04:00:38.446Z,99157.20
2023-03-26T04:03:33.538Z,99155.80
2023-03-26T04:06:02.103Z,99160.20
2023-03-26T04:08:30.237Z,99153.60
2023-03-26T04:10:58.280Z,99154.80
2023-03-26T04:13:44.851Z,99151.40
2023-03-26T04:16:27.180Z,99153.00
2023-03-26T04:18:55.114Z,99156.40
2023-03-26T04:21:24.095Z,99154.20
2023-03-26T04:23:51.774Z,99149.00
2023-03-26T04:26:50.026Z,99148.20
2023-03-26T04:29:24.495Z,99144.00
2023-03-26T04:32:06.457Z,99142.60
2023-03-26T04:34:34.421Z,99144.20
2023-03-26T04:37:21.965Z,99139.20
2023-03-26T04:39:55.537Z,99141.80
2023-03-26T04:42:49.612Z,99140.20
2023-03-26T04:45:30.441Z,99136.60
2023-03-26T04:47:58.330Z,99130.00
2023-03-26T04:50:26.982Z,99135.60
2023-03-26T04:52:57.399Z,99138.40
2023-03-26T04:56:12.533Z,99136.80
2023-03-26T04:59:08.049Z,99135.80
2023-03-26T05:01:40.269Z,99133.00
2023-03-26T05:04:08.483Z,99136.80
2023-03-26T05:06:38.041Z,99136.00
2023-03-26T05:09:10.811Z,99132.00
2023-03-26T05:11:58.511Z,99139.40
2023-03-26T05:14:26.413Z,99135.80
2023-03-26T05:16:55.131Z,99134.00
2023-03-26T05:19:23.409Z,99133.60
2023-03-26T05:21:51.362Z,99133.20
2023-03-26T05:24:19.903Z,99140.40
2023-03-26T05:26:47.841Z,99133.00
2023-03-26T05:29:17.479Z,99139.40
2023-03-26T05:31:48.938Z,99143.00
2023-03-26T05:34:16.883Z,99149.40
2023-03-26T05:36:44.661Z,99159.20
2023-03-26T05:39:35.686Z,99160.20
2023-03-26T05:42:23.516Z,99160.20
2023-03-26T05:45:17.597Z,99163.40
2023-03-26T05:47:45.397Z,99165.00
2023-03-26T05:50:13.254Z,99168.60
2023-03-26T05:52:42.536Z,99164.00
2023-03-26T05:55:25.730Z,99166.40
2023-03-26T05:58:13.898Z,99165.20
2023-03-26T06:01:06.274Z,99165.80
2023-03-26T06:03:51.419Z,99174.80
2023-03-26T06:06:21.123Z,99176.00
2023-03-26T06:09:00.920Z,99180.40
2023-03-26T06:11:32.008Z,99184.20
2023-03-26T06:14:01.071Z,99184.80
2023-03-26T06:16:28.895Z,99194.80
2023-03-26T06:19:11.809Z,99199.40
2023-03-26T06:21:57.964Z,99205.40
2023-03-26T06:24:31.638Z,99209.60
2023-03-26T06:27:22.489Z,99208.00
2023-03-26T06:29:50.265Z,99214.80
2023-03-26T06:32:34.034Z,99216.80
2023-03-26T06:35:09.440Z,99217.60
2023-03-26T06:37:37.719Z,99224.40
2023-03-26T06:40:06.278Z,99222.60
2023-03-26T06:43:07.957Z,99227.20
2023-03-26T06:46:09.319Z,99229.80
2023-03-26T06:48:42.324Z,99228.60
2023-03-26T06:51:19.343Z,99231.00
2023-03-26T06:54:05.885Z,99232.40
2023-03-26T06:57:02.568Z,99240.20
2023-03-26T07:00:09.327Z,99238.00
2023-03-26T07:02:55.612Z,99246.80
2023-03-26T07:05:41.798Z,99245.40
2023-03-26T07:08:28.041Z,99248.60
2023-03-26T07:11:14.226Z,99248.80
2023-03-26T07:14:00.969Z,99256.60
2023-03-26T07:17:00.586Z,99255.40
2023-03-26T07:19:53.703Z,99264.40
2023-03-26T07:22:26.067Z,99268.00
2023-03-26T07:25:14.116Z,99270.00
2023-03-26T07:28:01.164Z,99271.00
2023-03-26T07:30:55.398Z,99271.80
2023-03-26T07:33:51.118Z,99271.80
2023-03-26T07:37:08.780Z,99276.60
2023-03-26T07:40:34.920Z,99279.40
2023-03-26T07:43:45.976Z,99283.40
2023-03-26T07:46:37.146Z,99287.40
2023-03-26T07:49:24.420Z,99291.00
2023-03-26T07:52:15.362Z,99292.20
2023-03-26T07:54:56.220Z,99303.20
2023-03-26T07:57:54.598Z,99304.20
2023-03-26T08:01:10.158Z,99313.60
2023-03-26T08:03:59.244Z,99324.00
2023-03-26T08:07:26.132Z,99325.80
2023-03-26T08:10:59.151Z,99331.20
2023-03-26T08:14:03.311Z,99335.20
2023-03-26T08:16:37.186Z,99336.00
2023-03-26T08:19:47.101Z,99342.60
2023-03-26T08:22:57.223Z,99351.20
2023-03-26T08:25:42.377Z,99355.60
2023-03-26T08:28:48.785Z,99358.60
2023-03-26T08:31:19.426Z,99362.80
2023-03-26T08:33:47.386Z,99368.80
2023-03-26T08:36:15.642Z,99372.60
2023-03-26T08:38:45.147Z,99374.60
2023-03-26T08:41:25.599Z,99378.40
2023-03-26T08:44:31.218Z,99383.60
2023-03-26T08:47:05.333Z,99391.00
2023-03-26T08:49:51.491Z,99389.40
2023-03-26T08:52:40.516Z,99393.20
2023-03-26T08:55:29.052Z,99395.00
2023-03-26T08:58:06.109Z,99402.40
2023-03-26T09:00:40.371Z,99403.80
2023-03-26T09:03:25.069Z,99405.00
2023-03-26T09:06:41.538Z,99411.60
2023-03-26T09:09:47.066Z,99412.20
2023-03-26T09:12:29.838Z,99421.60
2023-03-26T09:15:32.887Z,99416.00
2023-03-26T09:18:00.900Z,99424.00
2023-03-26T09:20:37.792Z,99428.00
2023-03-26T09:23:45.344Z,99433.60
2023-03-26T09:26:42.263Z,99437.20
2023-03-26T09:29:34.004Z,99436.60
2023-03-26T09:32:05.012Z,99443.40
2023-03-26T09:34:54.485Z,99438.60
2023-03-26T09:37:56.740Z,99448.20
2023-03-26T09:40:58.318Z,99451.60
2023-03-26T09:43:36.715Z,99464.00
2023-03-26T09:46:21.014Z,99458.20
2023-03-26T09:48:54.448Z,99467.80
2023-03-26T09:51:37.618Z,99470.60
2023-03-26T09:54:10.803Z,99481.00
2023-03-26T09:56:52.366Z,99488.60
2023-03-26T09:59:32.287Z,99488.00
2023-03-26T10:02:45.920Z,99491.20
2023-03-26T10:05:49.103Z,99499.60
2023-03-26T10:08:32.190Z,99509.00
2023-03-26T10:11:28.215Z,99513.80
2023-03-26T10:14:13.817Z,99523.40
2023-03-26T10:16:50.705Z,99521.80
2023-03-26T10:19:34.093Z,99536.40
2023-03-26T10:22:32.392Z,99541.20
2023-03-26T10:25:13.204Z,99546.20
2023-03-26T10:28:09.025Z,99550.80
2023-03-26T10:31:25.724Z,99551.20
2023-03-26T10:34:09.020Z,99570.40
2023-03-26T10:37:54.314Z,99574.60
2023-03-26T10:40:32.375Z,99580.80
2023-03-26T10:43:24.231Z,99589.80
2023-03-26T10:46:19.345Z,99592.20
2023-03-26T10:49:18.387Z,99598.00
2023-03-26T10:52:08.105Z,99600.60
2023-03-26T10:54:53.681Z,99610.40
2023-03-26T10:57:43.195Z,99610.40
2023-03-26T11:00:31.213Z,99615.20
2023-03-26T11:03:11.255Z,99613.80
2023-03-26T11:05:47.952Z,99625.40
2023-03-26T11:08:32.284Z,99628.60
2023-03-26T11:11:18.743Z,99635.80
2023-03-26T11:13:52.926Z,99639.80
2023-03-26T11:16:54.731Z,99649.20
2023-03-26T11:19:35.932Z,99657.40
2023-03-26T11:22:13.140Z,99667.80
2023-03-26T11:24:47.013Z,99679.40
2023-03-26T11:27:26.325Z,99688.80
2023-03-26T11:30:23.565Z,99695.40
2023-03-26T11:33:02.292Z,99706.00
2023-03-26T11:35:39.481Z,99715.40
2023-03-26T11:38:20.306Z,99720.20
2023-03-26T11:40:54.148Z,99730.60
2023-03-26T11:43:36.914Z,99744.20
2023-03-26T11:46:09.643Z,99753.60
2023-03-26T11:48:44.808Z,99755.60
2023-03-26T11:51:36.765Z,99767.00
2023-03-26T11:54:06.541Z,99777.00
2023-03-26T11:57:05.019Z,99785.00
2023-03-26T11:59:55.553Z,99795.60
2023-03-26T12:02:38.378Z,99802.40
2023-03-26T12:05:19.712Z,99805.60
2023-03-26T12:07:56.096Z,99813.80
2023-03-26T12:10:31.508Z,99824.80
2023-03-26T12:13:02.616Z,99836.00
2023-03-26T12:15:32.131Z,99841.00
2023-03-26T12:18:20.757Z,99845.40
2023-03-26T12:20:49.487Z,99856.80
2023-03-26T12:23:43.643Z,99864.80
2023-03-26T12:26:16.542Z,99867.60
2023-03-26T12:28:47.266Z,99875.80
2023-03-26T12:31:18.387Z,99879.40
2023-03-26T12:34:06.091Z,99879.60
2023-03-26T12:36:35.899Z,99887.40
2023-03-26T12:40:09.913Z,99887.20
2023-03-26T12:44:47.168Z,99900.40
2023-03-26T12:45:24.649Z,99906.80
2023-03-26T12:47:57.449Z,99917.20
2023-03-26T12:50:42.763Z,99922.40
2023-03-26T12:53:31.938Z,99923.80
2023-03-26T12:56:27.240Z,99935.40
2023-03-26T12:58:58.143Z,99945.40
2023-03-26T13:01:47.194Z,99945.80
2023-03-26T13:04:27.389Z,99953.00
2023-03-26T13:07:02.764Z,99964.60
2023-03-26T13:10:21.187Z,99968.40
2023-03-26T13:12:58.218Z,99971.40
2023-03-26T13:15:34.637Z,99977.40
2023-03-26T13:18:33.539Z,99984.60
2023-03-26T13:21:31.400Z,99987.60
2023-03-26T13:24:43.352Z,99987.60
2023-03-26T13:27:30.756Z,99990.80
2023-03-26T13:30:25.459Z,99993.40
2023-03-26T13:33:06.893Z,99995.80
2023-03-26T13:35:48.393Z,99997.80
2023-03-26T13:38:37.879Z,100006.00
2023-03-26T13:41:30.428Z,100014.80
2023-03-26T13:44:31.187Z,100019.20
2023-03-26T13:47:13.159Z,100022.80
2023-03-26T13:49:46.756Z,100025.40
2023-03-26T13:52:25.179Z,100031.80
2023-03-26T13:55:03.623Z,100033.00
2023-03-26T13:57:40.811Z,100040.20
2023-03-26T14:00:13.774Z,100037.40
2023-03-26T14:02:49.481Z,100036.80
2023-03-26T14:05:29.744Z,100053.40
2023-03-26T14:08:17.342Z,100054.40
2023-03-26T14:10:54.197Z,100059.20
2023-03-26T14:13:31.964Z,100074.60
2023-03-26T14:16:10.995Z,100080.80
2023-03-26T14:18:41.362Z,100087.00
2023-03-26T14:21:28.075Z,100095.60
2023-03-26T14:24:11.136Z,100110.60
2023-03-26T14:26:53.836Z,100113.60
2023-03-26T14:29:56.846Z,100121.20
2023-03-26T14:32:43.959Z,100129.60
2023-03-26T14:35:35.149Z,100129.20
2023-03-26T14:38:41.928Z,100135.00
2023-03-26T14:41:24.864Z,100141.20
2023-03-26T14:44:28.680Z,100146.80
2023-03-26T14:47:16.926Z,100151.80
2023-03-26T14:50:04.004Z,100152.20
2023-03-26T14:52:50.129Z,100156.80
2023-03-26T14:55:23.785Z,100164.20
2023-03-26T14:58:01.971Z,100160.80
2023-03-26T15:01:04.210Z,100166.80
2023-03-26T15:04:03.204Z,100178.80
2023-03-26T15:06:49.893Z,100188.00
2023-03-26T15:09:32.511Z,100189.20
2023-03-26T15:12:18.514Z,100184.60
2023-03-26T15:15:20.878Z,100195.80
2023-03-26T15:18:07.406Z,100209.40
2023-03-26T15:20:54.581Z,100211.60
2023-03-26T15:23:37.096Z,100225.00
2023-03-26T15:26:42.544Z,100227.00
2023-03-26T15:29:31.921Z,100232.20
2023-03-26T15:32:26.064Z,100237.80
2023-03-26T15:35:13.288Z,100249.40
2023-03-26T15:37:57.084Z,100258.80
2023-03-26T15:40:36.681Z,100259.00
2023-03-26T15:43:12.344Z,100268.80
2023-03-26T15:46:24.488Z,100280.80
2023-03-26T15:48:52.471Z,100285.20
2023-03-26T15:51:31.644Z,100288.40
2023-03-26T15:54:48.917Z,100299.80
2023-03-26T15:57:34.637Z,100306.40
2023-03-26T16:00:15.373Z,100316.80
2023-03-26T16:02:53.702Z,100322.80
2023-03-26T16:05:37.295Z,100330.80
2023-03-26T16:08:26.739Z,100331.40
2023-03-26T16:11:00.374Z,100331.00
2023-03-26T16:13:36.727Z,100333.20
2023-03-26T16:16:04.519Z,100346.40
2023-03-26T16:18:41.151Z,100344.00
2023-03-26T16:21:37.108Z,100355.40
2023-03-26T16:24:08.185Z,100363.60
2023-03-26T16:26:40.116Z,100370.40
2023-03-26T16:29:18.125Z,100365.40
2023-03-26T16:32:00.738Z,100372.80
2023-03-26T16:34:47.751Z,100374.40
2023-03-26T16:37:37.169Z,100370.60
2023-03-26T16:40:23.651Z,100380.80
2023-03-26T16:43:29.139Z,100388.00
2023-03-26T16:46:05.722Z,100398.60
2023-03-26T16:48:48.512Z,100408.80
2023-03-26T16:51:25.714Z,100408.60
2023-03-26T16:54:04.076Z,100419.80
2023-03-26T16:56:34.643Z,100421.20
2023-03-26T16:59:25.918Z,100425.40
2023-03-26T17:02:05.027Z,100433.80
2023-03-26T17:04:34.488Z,100436.20
2023-03-26T17:07:21.819Z,100446.00
2023-03-26T17:10:14.901Z,100448.40
2023-03-26T17:12:55.155Z,100452.80
2023-03-26T17:15:47.267Z,100462.40
2023-03-26T17:18:30.418Z,100470.00
2023-03-26T17:21:09.725Z,100477.60
2023-03-26T17:24:00.441Z,100481.80
2023-03-26T17:26:53.763Z,100491.20
2023-03-26T17:29:27.266Z,100496.20
2023-03-26T17:32:09.254Z,100498.80
2023-03-26T17:34:49.153Z,100506.00
2023-03-26T17:37:17.017Z,100514.40
2023-03-26T17:39:46.961Z,100524.60
2023-03-26T17:42:32.895Z,100521.40
2023-03-26T17:45:17.581Z,100533.60
2023-03-26T17:48:02.414Z,100545.00
2023-03-26T17:50:47.411Z,100540.40
2023-03-26T17:53:27.205Z,100553.80
2023-03-26T17:56:01.164Z,100559.00
2023-03-26T17:58:39.106Z,100560.00
2023-03-26T18:01:09.954Z,100573.40
2023-03-26T18:04:03.081Z,100582.20
2023-03-26T18:06:46.291Z,100592.40
2023-03-26T18:09:36.198Z,100607.60
2023-03-26T18:12:38.256Z,100617.20
2023-03-26T18:15:24.027Z,100627.80
2023-03-26T18:18:07.571Z,100635.80
2023-03-26T18:20:37.589Z,100646.40
2023-03-26T18:23:12.443Z,100646.20
2023-03-26T18:25:41.124Z,100652.80
2023-03-26T18:28:14.201Z,100655.40
2023-03-26T18:30:47.732Z,100659.60
2023-03-26T18:33:16.036Z,100660.20
2023-03-26T18:35:54.147Z,100667.20
2023-03-26T18:38:35.505Z,100670.60
2023-03-26T18:41:08.378Z,100686.40
2023-03-26T18:43:44.386Z,100692.00
2023-03-26T18:46:14.714Z,100693.60
2023-03-26T18:48:44.022Z,100698.40
2023-03-26T18:51:12.725Z,100706.20
2023-03-26T18:53:52.013Z,100713.00
2023-03-26T18:56:31.798Z,100713.60
2023-03-26T18:59:02.403Z,100718.80
2023-03-26T19:01:33.375Z,100723.20
2023-03-26T19:04:05.808Z,100728.80
2023-03-26T19:06:38.530Z,100736.40
2023-03-26T19:09:20.021Z,100743.80
2023-03-26T19:11:58.738Z,100742.40
2023-03-26T19:14:28.729Z,100747.20
2023-03-26T19:17:00.943Z,100754.20
2023-03-26T19:19:37.837Z,100758.80
2023-03-26T19:22:07.272Z,100762.40
2023-03-26T19:24:35.201Z,100771.00
2023-03-26T19:27:04.105Z,100775.60
2023-03-26T19:29:34.160Z,100778.80
2023-03-26T19:32:05.234Z,100789.80
2023-03-26T19:34:38.999Z,100784.80
2023-03-26T19:37:23.868Z,100790.80
2023-03-26T19:40:12.813Z,100800.00
2023-03-26T19:42:44.764Z,100804.20
2023-03-26T19:45:21.801Z,100808.00
2023-03-26T19:48:00.416Z,100810.40
2023-03-26T19:50:42.470Z,100818.00
2023-03-26T19:53:24.582Z,100820.40
2023-03-26T19:56:15.480Z,100828.00
2023-03-26T19:58:44.091Z,100830.60
2023-03-26T20:01:18.820Z,100832.60
2023-03-26T20:03:49.767Z,100833.60
2023-03-26T20:06:23.721Z,100840.20
2023-03-26T20:08:56.652Z,100845.00
2023-03-26T20:11:33.346Z,100854.00
2023-03-26T20:14:01.698Z,100864.20
2023-03-26T20:16:33.461Z,100866.40
2023-03-26T20:19:02.478Z,100873.60
2023-03-26T20:21:34.564Z,100870.80
2023-03-26T20:24:02.940Z,100877.60
2023-03-26T20:26:30.833Z,100884.80
2023-03-26T20:28:58.892Z,100880.80
2023-03-26T20:31:27.382Z,100893.20
2023-03-26T20:33:56.518Z,100894.60
2023-03-26T20:36:33.229Z,100896.40
2023-03-26T20:39:08.003Z,100898.40
2023-03-26T20:41:41.854Z,100903.00
2023-03-26T20:44:15.919Z,100898.80
2023-03-26T20:47:24.857Z,100908.20
2023-03-26T20:49:53.112Z,100908.80
2023-03-26T20:52:22.888Z,100920.00
2023-03-26T20:54:50.648Z,100920.40
2023-03-26T20:57:18.744Z,100930.00
2023-03-26T20:59:46.721Z,100940.80
2023-03-26T21:02:14.732Z,100938.00
2023-03-26T21:04:42.632Z,100942.80
2023-03-26T21:07:17.481Z,100944.80
2023-03-26T21:09:48.789Z,100949.80
2023-03-26T21:12:29.608Z,100950.80
2023-03-26T21:14:58.445Z,100950.20
2023-03-26T21:17:27.145Z,100960.80
2023-03-26T21:19:55.368Z,100961.80
2023-03-26T21:23:04.564Z,100959.20
2023-03-26T21:25:43.285Z,100957.20
2023-03-26T21:28:13.954Z,100960.80
2023-03-26T21:30:42.645Z,100966.80
2023-03-26T21:33:10.496Z,100967.60
2023-03-26T21:35:38.754Z,100975.20
2023-03-26T21:38:09.391Z,100978.60
2023-03-26T21:40:40.594Z,100985.80
2023-03-26T21:43:12.841Z,100984.80
2023-03-26T21:45:41.520Z,100994.40
2023-03-26T21:48:10.607Z,100997.80
2023-03-26T21:50:38.946Z,101008.40
2023-03-26T21:53:07.376Z,101011.00
2023-03-26T21:56:00.980Z,101011.80
2023-03-26T21:58:47.712Z,101013.80
2023-03-26T22:01:33.264Z,101023.60
2023-03-26T22:04:36.453Z,101031.40
2023-03-26T22:07:17.686Z,101033.00
2023-03-26T22:09:46.407Z,101038.80
2023-03-26T22:12:14.284Z,101046.40
2023-03-26T22:14:42.395Z,101053.80
2023-03-26T22:17:10.499Z,101052.80
2023-03-26T22:19:38.456Z,101056.80
2023-03-26T22:22:06.261Z,101065.20
2023-03-26T22:24:34.385Z,101064.80
2023-03-26T22:27:02.676Z,101069.00
2023-03-26T22:29:30.535Z,101070.40
2023-03-26T22:31:58.333Z,101067.20
2023-03-26T22:34:26.107Z,101070.40
2023-03-26T22:36:53.903Z,101071.00
2023-03-26T22:39:21.766Z,101078.20
2023-03-26T22:41:49.568Z,101090.80
2023-03-26T22:44:20.249Z,101087.20
2023-03-26T22:46:51.773Z,101092.40
2023-03-26T22:49:19.990Z,101094.80
2023-03-26T22:51:48.036Z,101093.60
2023-03-26T22:54:15.855Z,101089.00
2023-03-26T22:56:45.773Z,101093.20
2023-03-26T22:59:13.880Z,101092.80
2023-03-26T23:01:41.745Z,101097.60
2023-03-26T23:04:09.927Z,101104.00
2023-03-26T23:06:37.887Z,101105.20
2023-03-26T23:09:07.170Z,101114.00
2023-03-26T23:11:35.137Z,101116.80
2023-03-26T23:14:03.168Z,101124.00
2023-03-26T23:16:31.810Z,101129.20
2023-03-26T23:18:59.955Z,101138.00
2023-03-26T23:21:27.780Z,101148.00
2023-03-26T23:23:55.766Z,101149.00
2023-03-26T23:26:24.488Z,101153.60
2023-03-26T23:28:52.397Z,101156.80
2023-03-26T23:31:20.206Z,101160.80
2023-03-26T23:33:50.226Z,101165.20
2023-03-26T23:36:20.363Z,101169.80
2023-03-26T23:38:48.962Z,101171.20
2023-03-26T23:41:21.537Z,101172.80
2023-03-26T23:43:53.936Z,101174.40
2023-03-26T23:46:34.694Z,101185.00
2023-03-26T23:49:03.768Z,101184.00
2023-03-26T23:51:33.246Z,101190.20
2023-03-26T23:54:01.493Z,101192.20
2023-03-26T23:56:30.063Z,101192.80
2023-03-26T23:58:59.255Z,101191.40
